Ames, Kansas
Current Conditions -  °F | °C
As of 7:55 PM on Sunday 25 Jan 2015 (Local Time) from KCNK Reporting Station
Clear Clear  
Wind Chill:   Ceiling: Unl
Heat Index:   Visibility: 10mi
Dew Point: -1°   Wind: 0mph
Humidity: 79%   Direction: NA
Pressure: 30.1"   Gusts: NA
Location:  39.4716°N, 97.7305°W
Report Text: KCNK 260155Z AUTO 00000KT 10SM CLR 02/M01 A3010 RMK AO2 SLP202 T00221011 $
Loading
Personal Weather Stations






























Interactive Weather Map New forecast layout! Learn more

10-Day Weather Forecast

Advertisements
Track Severe Weather on mobile